Terminal Aerodrome Forecast
Issued by NWS

Home | Current Version | Previous Version | Text Only | Print | Product List | Glossary On
Versions: 1 2 3 4 5 6 7 8 9 10 11 12 13 14
000
FTUS46 KHNX 201130
TAFMER
TAF
KMER 201130Z 2012/2112 10005KT P6SM VCSH SCT030 BKN045 OVC060
     FM201500 09005KT P6SM BKN035 OVC045
     FM201800 09005KT 4SM BR SCT015 BKN035
      TEMPO 2018/2022 3SM BR BKN015
     FM210300 VRB03KT 3SM BR SCT005 BKN070
      TEMPO 2108/2112 1SM BR BKN005=

USA.gov is the U.S. government's official web portal to all federal, state and local government web resources and services.